KCBF/CBF METAR and TAF weather

Enter ICAO airport designator
Station Type Date Time Source
KCBF METAR 2018/12/10 18:35 UTC NOAA

KCBF 101835Z AUTO 22007KT 10SM CLR M05/M05 A3024 RMK AO2


Station Type Date Time Source
KCBF Decoded METAR 2018/12/10 18:35 UTC NOAA

Council Bluffs, IA, United States (KCBF) 41-16N 095-46W
Dec 10, 2018 - 01:35 PM EST / 2018.12.10 1835 UTC
Wind: from the SW (220 degrees) at 8 MPH (7 KT):0
Visibility: 10 mile(s):0
Sky conditions: clear
Temperature: 23 F (-5 C)
Windchill: 14 F (-10 C):1
Dew Point: 23 F (-5 C)
Relative Humidity: 100%
Pressure (altimeter): 30.24 in. Hg (1024 hPa)
ob: KCBF 101835Z AUTO 22007KT 10SM CLR M05/M05 A3024 RMK AO2
cycle: 18

Station Type Date Time Source
KCBF TAF UTC NOAA

Error!


Example: see airport list